Time;durP1;ratioP1;P1;durP2;ratioP2;P2;SDS_P1;SDS_P2;PMS_P1;PMS_P2;Temp;Humidity;BMP_temperature;BMP_pressure;BME280_temperature;BME280_humidity;BME280_pressure;Samples;Min_cycle;Max_cycle;Signal;HPM_P1;HPM_P2
2023/07/28 00:00:49;;;;;;;3.45;2.80;;;;;;;17.53;81.88;96036.63;5020389;28;20076;-78
2023/07/28 00:03:17;;;;;;;4.78;3.17;;;;;;;17.50;81.79;96034.47;5020505;28;20064;-80
2023/07/28 00:05:44;;;;;;;3.58;2.88;;;;;;;17.45;81.52;96026.50;5020110;28;20461;-80
2023/07/28 00:08:13;;;;;;;4.50;2.83;;;;;;;17.41;81.62;96038.56;5020394;28;20046;-78
2023/07/28 00:10:42;;;;;;;3.10;2.78;;;;;;;17.35;81.73;96036.88;5019293;28;20058;-80
2023/07/28 00:13:10;;;;;;;2.95;2.65;;;;;;;17.31;81.58;96031.25;5018924;28;20077;-79
2023/07/28 00:15:37;;;;;;;4.78;3.17;;;;;;;17.26;81.68;96029.34;5020297;28;20050;-81
2023/07/28 00:18:05;;;;;;;2.97;2.30;;;;;;;17.23;81.58;96029.84;5020252;28;20497;-78
2023/07/28 00:20:32;;;;;;;5.47;3.03;;;;;;;17.21;81.72;96037.19;5018365;28;20065;-79
2023/07/28 00:23:00;;;;;;;3.58;2.67;;;;;;;17.19;81.76;96031.34;5019283;28;20457;-79
2023/07/28 00:25:29;;;;;;;3.55;2.70;;;;;;;17.18;81.76;96032.34;5019253;28;20050;-79
2023/07/28 00:27:57;;;;;;;4.20;2.45;;;;;;;17.17;81.76;96030.78;5019268;28;20046;-78
2023/07/28 00:30:25;;;;;;;3.83;2.30;;;;;;;17.17;81.59;96029.97;5020281;28;20053;-79
2023/07/28 00:32:53;;;;;;;5.88;3.63;;;;;;;17.16;81.80;96031.78;5019476;28;20478;-79
2023/07/28 00:35:21;;;;;;;4.70;2.83;;;;;;;17.17;81.62;96025.50;5020188;28;20436;-80
2023/07/28 00:37:48;;;;;;;5.53;2.90;;;;;;;17.13;81.43;96032.28;5020345;28;20458;-78
2023/07/28 00:40:16;;;;;;;2.60;2.40;;;;;;;17.12;81.50;96030.69;5034772;28;20064;-81
2023/07/28 00:42:46;;;;;;;2.88;2.58;;;;;;;17.11;81.39;96033.56;5039213;28;20046;-79
2023/07/28 00:45:13;;;;;;;4.55;2.80;;;;;;;17.07;81.40;96026.09;5035658;28;20052;-80
2023/07/28 00:47:42;;;;;;;3.30;3.00;;;;;;;17.05;81.25;96027.38;5036656;28;20046;-79
2023/07/28 00:50:10;;;;;;;3.20;2.53;;;;;;;17.00;81.21;96024.66;5039456;28;20041;-81
2023/07/28 00:52:39;;;;;;;3.88;2.63;;;;;;;16.96;81.27;96020.91;5039531;28;20053;-80
2023/07/28 00:55:07;;;;;;;5.90;2.70;;;;;;;16.94;81.12;96021.13;5039826;28;20075;-82
2023/07/28 00:57:35;;;;;;;2.95;2.75;;;;;;;16.89;81.16;96019.22;5040002;28;20030;-81
2023/07/28 01:00:05;;;;;;;2.70;2.30;;;;;;;16.85;81.16;96018.06;5032557;28;20053;-82
2023/07/28 01:02:33;;;;;;;4.88;2.97;;;;;;;16.82;81.08;96010.66;5031929;28;20096;-81
2023/07/28 01:05:01;;;;;;;3.08;2.53;;;;;;;16.80;81.06;96018.00;5037652;28;20050;-82
2023/07/28 01:07:35;;;;;;;4.50;2.45;;;;;;;16.78;81.23;96022.66;5028286;28;20069;-81
2023/07/28 01:10:07;;;;;;;4.28;2.72;;;;;;;16.75;81.11;96017.88;5026642;28;20050;-82
2023/07/28 01:12:35;;;;;;;4.95;2.38;;;;;;;16.74;80.97;96018.09;5030927;28;20049;-80
2023/07/28 01:15:04;;;;;;;7.90;2.58;;;;;;;16.72;81.01;96015.69;5028149;28;20058;-81
2023/07/28 01:17:32;;;;;;;3.05;2.55;;;;;;;16.71;80.75;96016.75;5026753;28;20056;-81
2023/07/28 01:20:00;;;;;;;3.70;2.53;;;;;;;16.68;80.89;96006.66;5025881;28;20579;-80
2023/07/28 01:22:49;;;;;;;3.50;2.47;;;;;;;16.66;81.47;96008.72;5025733;28;20056;-82
2023/07/28 01:25:22;;;;;;;2.97;2.67;;;;;;;16.64;81.11;96002.91;5025477;28;20525;-79
2023/07/28 01:27:53;;;;;;;4.47;2.47;;;;;;;16.62;81.20;96012.88;5025395;28;20497;-79
2023/07/28 01:30:21;;;;;;;3.28;2.50;;;;;;;16.59;81.15;96014.13;5025169;28;20046;-79
2023/07/28 01:32:49;;;;;;;4.25;2.47;;;;;;;16.59;81.17;96018.59;5024732;28;20085;-79
2023/07/28 01:35:16;;;;;;;3.15;2.10;;;;;;;16.59;81.16;96018.59;5024684;28;20049;-81
2023/07/28 01:37:45;;;;;;;4.18;2.38;;;;;;;16.58;81.22;96022.28;5025179;28;20049;-81
2023/07/28 01:40:13;;;;;;;6.15;2.40;;;;;;;16.59;81.03;96013.34;5024106;28;20536;-80
2023/07/28 01:42:40;;;;;;;2.58;2.20;;;;;;;16.59;81.02;96008.06;5023506;28;20054;-79
2023/07/28 01:45:10;;;;;;;6.10;2.40;;;;;;;16.60;80.98;96012.31;5023151;28;20053;-80
2023/07/28 01:47:38;;;;;;;3.40;2.20;;;;;;;16.61;80.80;96013.91;5023764;28;20048;-80
2023/07/28 01:50:06;;;;;;;6.72;2.80;;;;;;;16.62;80.71;96013.69;5023220;28;20061;-80
2023/07/28 01:52:34;;;;;;;4.47;2.38;;;;;;;16.61;80.72;96012.06;5023544;28;20498;-80
2023/07/28 01:55:02;;;;;;;4.57;2.30;;;;;;;16.61;80.71;96004.16;5023456;28;20069;-81
2023/07/28 01:57:33;;;;;;;3.53;2.40;;;;;;;16.62;80.60;95997.88;5023609;28;20450;-80
2023/07/28 02:00:03;;;;;;;2.80;2.30;;;;;;;16.63;80.44;95996.03;5020531;28;20072;-79
2023/07/28 02:02:31;;;;;;;2.92;2.60;;;;;;;16.64;80.35;96001.09;5022046;28;20108;-79
2023/07/28 02:04:59;;;;;;;2.85;2.22;;;;;;;16.65;80.00;95994.75;5021634;28;20061;-79
2023/07/28 02:07:27;;;;;;;2.70;2.00;;;;;;;16.66;80.11;95998.19;5021026;28;20418;-78
2023/07/28 02:09:55;;;;;;;2.20;1.95;;;;;;;16.66;80.01;95987.66;5021076;28;20104;-80
2023/07/28 02:12:22;;;;;;;3.70;2.28;;;;;;;16.67;79.96;95986.63;5020243;28;20050;-80
2023/07/28 02:14:50;;;;;;;4.90;2.83;;;;;;;16.66;79.98;95982.38;5020671;28;20054;-78
2023/07/28 02:17:17;;;;;;;3.70;2.30;;;;;;;16.65;79.83;95997.41;5020257;28;20111;-79
2023/07/28 02:19:47;;;;;;;3.50;2.30;;;;;;;16.65;79.86;95999.25;5020416;28;20050;-79
2023/07/28 02:22:14;;;;;;;3.67;2.30;;;;;;;16.64;79.87;95992.38;5019058;28;20096;-78
2023/07/28 02:24:42;;;;;;;3.35;2.10;;;;;;;16.63;79.74;95988.13;5020022;28;20050;-77
2023/07/28 02:27:10;;;;;;;2.42;2.22;;;;;;;16.63;79.68;95988.13;5020120;28;20576;-79
2023/07/28 02:29:37;;;;;;;2.63;1.67;;;;;;;16.62;79.78;95992.63;5022390;28;20422;-80
2023/07/28 02:32:06;;;;;;;4.75;2.00;;;;;;;16.61;79.79;95990.22;5021948;28;20104;-80
2023/07/28 02:34:33;;;;;;;3.67;3.08;;;;;;;16.59;79.78;95992.28;5022074;28;20513;-80
2023/07/28 02:37:03;;;;;;;2.58;2.35;;;;;;;16.60;79.68;95991.25;5021090;28;20053;-79
2023/07/28 02:39:30;;;;;;;3.03;2.25;;;;;;;16.58;79.69;95991.47;5021961;28;20413;-82
2023/07/28 02:41:58;;;;;;;2.72;2.00;;;;;;;16.59;79.68;95992.28;5023114;28;20476;-81
2023/07/28 02:44:25;;;;;;;3.17;2.05;;;;;;;16.60;79.75;95983.34;5022640;28;20472;-81
2023/07/28 02:46:53;;;;;;;3.92;2.22;;;;;;;16.59;79.52;95982.53;5022425;28;20045;-78
2023/07/28 02:49:21;;;;;;;4.88;2.38;;;;;;;16.60;79.50;95976.25;5021626;28;20050;-79
2023/07/28 02:51:48;;;;;;;3.17;2.28;;;;;;;16.62;79.40;95978.66;5021657;28;20101;-79
2023/07/28 02:54:17;;;;;;;3.22;1.83;;;;;;;16.62;79.38;95981.28;5021289;28;20468;-79
2023/07/28 02:56:45;;;;;;;4.55;2.00;;;;;;;16.62;79.39;95992.63;5020496;28;20049;-79
2023/07/28 02:59:14;;;;;;;2.65;1.95;;;;;;;16.61;79.40;95985.72;5020578;28;20050;-78
2023/07/28 03:01:42;;;;;;;2.60;1.60;;;;;;;16.61;79.32;95987.56;5020273;28;20058;-82
2023/07/28 03:04:09;;;;;;;3.95;1.90;;;;;;;16.59;79.33;95989.63;5020237;28;20050;-81
2023/07/28 03:06:37;;;;;;;2.97;2.47;;;;;;;16.57;79.21;95989.06;5021053;28;20046;-80
2023/07/28 03:09:04;;;;;;;2.53;1.98;;;;;;;16.56;79.13;95993.53;5020921;28;20054;-80
2023/07/28 03:11:33;;;;;;;2.83;2.45;;;;;;;16.57;79.28;96000.41;5020773;28;20058;-77
2023/07/28 03:14:01;;;;;;;2.53;2.10;;;;;;;16.57;79.35;96008.28;5020309;28;20096;-78
2023/07/28 03:16:29;;;;;;;2.78;2.50;;;;;;;16.56;79.41;96003.28;5019345;28;20182;-79
2023/07/28 03:18:56;;;;;;;3.88;2.72;;;;;;;16.55;79.56;96013.03;5020155;28;20057;-80
2023/07/28 03:21:24;;;;;;;3.50;2.45;;;;;;;16.53;79.91;96020.34;5019942;28;20119;-78
2023/07/28 03:23:51;;;;;;;2.47;2.20;;;;;;;16.53;79.93;96024.78;5019316;28;20100;-78
2023/07/28 03:26:19;;;;;;;2.65;2.30;;;;;;;16.51;79.61;96034.75;5020014;28;20062;-78
2023/07/28 03:28:48;;;;;;;3.35;2.33;;;;;;;16.50;80.15;96036.59;5019557;28;20200;-78
2023/07/28 03:31:16;;;;;;;3.83;2.25;;;;;;;16.48;79.92;96039.47;5018868;28;20505;-79
2023/07/28 03:33:43;;;;;;;2.38;2.10;;;;;;;16.48;79.55;96047.34;5019871;28;20050;-78
2023/07/28 03:36:11;;;;;;;3.78;2.65;;;;;;;16.46;79.50;96038.09;5019392;28;20589;-79
2023/07/28 03:38:39;;;;;;;4.28;2.20;;;;;;;16.43;79.32;96043.84;5019406;28;20065;-78
2023/07/28 03:41:07;;;;;;;3.17;2.28;;;;;;;16.42;79.33;96035.16;5021111;28;20060;-79
2023/07/28 03:43:34;;;;;;;4.15;2.58;;;;;;;16.40;79.58;96050.38;5020666;28;20080;-78
2023/07/28 03:46:03;;;;;;;2.50;2.30;;;;;;;16.40;79.68;96041.69;5021386;28;20073;-79
2023/07/28 03:48:31;;;;;;;4.18;2.95;;;;;;;16.38;79.73;96049.00;5022950;28;20601;-81
2023/07/28 03:50:59;;;;;;;2.78;2.58;;;;;;;16.39;79.86;96051.38;5021684;28;20042;-78
2023/07/28 03:53:26;;;;;;;3.63;2.55;;;;;;;16.38;79.83;96052.44;5021904;28;20058;-81
2023/07/28 03:55:57;;;;;;;2.97;2.63;;;;;;;16.40;79.84;96053.00;5021214;28;20050;-78
2023/07/28 03:58:25;;;;;;;5.13;2.70;;;;;;;16.41;80.02;96054.59;5021591;28;20049;-78
2023/07/28 04:00:53;;;;;;;3.72;2.60;;;;;;;16.44;80.17;96054.13;5021365;28;20481;-81
2023/07/28 04:03:23;;;;;;;4.68;2.67;;;;;;;16.47;80.03;96063.41;5020789;28;20132;-78
2023/07/28 04:05:51;;;;;;;3.65;2.72;;;;;;;16.48;79.74;96065.78;5021973;28;20113;-79
2023/07/28 04:08:18;;;;;;;3.65;2.53;;;;;;;16.50;79.88;96067.41;5021207;28;20050;-79
2023/07/28 04:10:46;;;;;;;4.78;2.25;;;;;;;16.51;79.79;96066.34;5020240;28;20084;-79
2023/07/28 04:13:14;;;;;;;4.55;2.83;;;;;;;16.52;79.97;96067.97;5023938;28;20050;-79
2023/07/28 04:15:41;;;;;;;4.70;3.03;;;;;;;16.55;79.75;96070.13;5024335;28;20501;-78
2023/07/28 04:18:09;;;;;;;6.05;3.10;;;;;;;16.58;80.24;96075.75;5024225;28;20053;-79
2023/07/28 04:20:38;;;;;;;4.53;3.00;;;;;;;16.62;80.74;96070.81;5024278;28;20054;-79
2023/07/28 04:23:05;;;;;;;3.95;3.47;;;;;;;16.64;80.53;96081.91;5023479;28;20116;-79
2023/07/28 04:25:33;;;;;;;8.20;2.60;;;;;;;16.65;80.43;96081.66;5023145;28;20049;-78
2023/07/28 04:28:01;;;;;;;8.90;3.25;;;;;;;16.68;80.91;96091.75;5024215;28;20093;-79
2023/07/28 04:30:28;;;;;;;9.48;3.42;;;;;;;16.67;80.79;96090.13;5023643;28;20537;-78
2023/07/28 04:32:56;;;;;;;5.57;3.25;;;;;;;16.68;80.80;96090.94;5023092;28;20054;-79
2023/07/28 04:35:23;;;;;;;5.13;3.00;;;;;;;16.68;80.67;96088.28;5023208;28;20058;-78
2023/07/28 04:37:52;;;;;;;6.07;3.08;;;;;;;16.67;80.28;96089.34;5023210;28;20512;-79
2023/07/28 04:40:20;;;;;;;6.78;2.95;;;;;;;16.66;80.41;96093.00;5023310;28;20083;-79
2023/07/28 04:42:52;;;;;;;4.85;2.90;;;;;;;16.66;80.42;96080.66;5023723;28;20050;-79
2023/07/28 04:45:20;;;;;;;5.30;3.05;;;;;;;16.66;80.66;96087.72;5023937;28;20053;-79
2023/07/28 04:47:48;;;;;;;4.55;2.88;;;;;;;16.66;81.06;96088.56;5023468;28;20069;-81
2023/07/28 04:50:15;;;;;;;7.30;3.80;;;;;;;16.71;81.82;96097.59;5023557;28;20417;-78
2023/07/28 04:52:43;;;;;;;6.63;3.95;;;;;;;16.71;81.27;96089.69;5023447;28;20053;-78
2023/07/28 04:55:12;;;;;;;6.15;2.85;;;;;;;16.72;81.00;96093.91;5024625;28;20088;-79
2023/07/28 04:57:40;;;;;;;5.38;3.20;;;;;;;16.72;80.88;96089.44;5024029;28;20072;-78
2023/07/28 05:00:09;;;;;;;5.38;3.05;;;;;;;16.74;80.99;96084.75;5022593;28;20053;-79
2023/07/28 05:02:38;;;;;;;7.20;2.97;;;;;;;16.76;81.00;96076.63;5021946;28;20050;-78
2023/07/28 05:05:06;;;;;;;6.85;2.75;;;;;;;16.77;80.98;96076.38;5023108;28;20073;-78
2023/07/28 05:07:33;;;;;;;6.80;3.22;;;;;;;16.78;81.28;96069.28;5022607;28;20085;-78
2023/07/28 05:10:01;;;;;;;4.38;2.53;;;;;;;16.80;80.80;96075.16;5021586;28;20050;-78
2023/07/28 05:12:30;;;;;;;7.05;3.30;;;;;;;16.79;81.09;96076.97;5021184;28;20112;-78
2023/07/28 05:14:57;;;;;;;4.25;3.10;;;;;;;16.78;80.98;96075.34;5020406;28;20076;-79
2023/07/28 05:17:25;;;;;;;5.80;3.65;;;;;;;16.79;81.96;96087.50;5020223;28;20473;-80
2023/07/28 05:19:53;;;;;;;4.43;3.60;;;;;;;16.81;81.58;96082.78;5021268;28;20061;-79
2023/07/28 05:22:20;;;;;;;4.65;2.70;;;;;;;16.84;81.35;96090.25;5011949;28;20054;-76
2023/07/28 05:24:48;;;;;;;5.85;3.53;;;;;;;16.88;81.84;96094.00;5023413;28;20118;-76
2023/07/28 05:27:17;;;;;;;3.88;3.25;;;;;;;16.91;81.46;96090.09;5036199;28;20053;-75
2023/07/28 05:29:46;;;;;;;6.30;3.47;;;;;;;16.95;80.97;96093.09;5024567;28;20045;-74
2023/07/28 05:32:13;;;;;;;6.93;3.33;;;;;;;16.95;80.96;96085.19;5036162;28;20060;-75
2023/07/28 05:34:42;;;;;;;5.70;3.70;;;;;;;16.98;81.38;96089.97;5036157;28;20472;-75
2023/07/28 05:37:10;;;;;;;3.67;3.25;;;;;;;17.03;81.59;96092.69;5028429;28;20045;-76
2023/07/28 05:39:38;;;;;;;5.20;3.47;;;;;;;17.07;82.09;96094.63;5017218;28;20426;-75
2023/07/28 05:42:06;;;;;;;5.43;3.83;;;;;;;17.13;82.02;96090.25;5036624;28;20470;-77
2023/07/28 05:44:34;;;;;;;7.65;3.28;;;;;;;17.17;82.12;96094.03;5032282;28;20111;-76
2023/07/28 05:47:04;;;;;;;10.25;3.78;;;;;;;17.19;81.78;96096.44;5017639;28;20522;-75
2023/07/28 05:49:32;;;;;;;8.70;3.08;;;;;;;17.20;81.52;96101.44;5017304;28;20131;-75
2023/07/28 05:52:00;;;;;;;5.95;3.00;;;;;;;17.19;82.34;96102.50;5017334;28;20077;-76
2023/07/28 05:54:28;;;;;;;4.03;3.15;;;;;;;17.21;81.81;96103.06;5016988;28;20050;-76
2023/07/28 05:56:55;;;;;;;4.78;3.10;;;;;;;17.21;81.75;96105.69;5017419;28;20426;-75
2023/07/28 05:59:23;;;;;;;4.63;3.60;;;;;;;17.24;82.71;96102.59;5016786;28;20078;-76
2023/07/28 06:01:51;;;;;;;5.35;3.50;;;;;;;17.27;81.70;96111.84;5018116;28;20050;-78
2023/07/28 06:04:20;;;;;;;3.33;3.03;;;;;;;17.28;81.43;96102.91;5019127;28;20049;-77
2023/07/28 06:06:48;;;;;;;5.65;4.28;;;;;;;17.32;81.69;96096.16;5014996;28;20495;-78
2023/07/28 06:09:15;;;;;;;5.32;3.50;;;;;;;17.37;82.05;96111.25;5019924;28;20041;-79
2023/07/28 06:11:43;;;;;;;6.55;3.97;;;;;;;17.40;82.32;96108.13;5039494;28;20120;-78
2023/07/28 06:14:10;;;;;;;3.10;2.88;;;;;;;17.42;82.44;96113.97;5030533;28;20494;-80
2023/07/28 06:16:38;;;;;;;3.92;3.42;;;;;;;17.44;82.41;96101.34;5020802;28;20112;-77
2023/07/28 06:19:06;;;;;;;5.15;3.95;;;;;;;17.45;82.96;96111.66;5019917;28;20057;-80
2023/07/28 06:24:27;;;;;;;8.10;4.15;;;;;;;17.49;83.69;96115.44;6102137;23;20079;-80
2023/07/28 07:37:27;;;;;;;5.18;3.97;;;;;;;18.17;83.81;96193.88;5073212;28;20052;-79
2023/07/28 09:03:01;;;;;;;4.13;3.63;;;;;;;20.44;73.21;96223.56;5785104;22;20033;-78
2023/07/28 09:52:51;;;;;;;3.75;3.35;;;;;;;19.82;76.04;96259.28;5818373;22;20061;-78
2023/07/28 10:41:28;;;;;;;4.72;2.80;;;;;;;20.23;74.22;96280.09;5675759;22;20020;-82
2023/07/28 10:43:56;;;;;;;4.40;3.17;;;;;;;20.23;75.29;96280.09;5035010;28;20076;-81
2023/07/28 10:46:23;;;;;;;4.50;3.70;;;;;;;20.28;74.96;96277.47;5034973;28;20508;-81
2023/07/28 10:48:51;;;;;;;4.60;3.08;;;;;;;20.37;74.93;96281.28;5036210;28;20053;-81
2023/07/28 11:10:30;;;;;;;2.58;2.33;;;;;;;21.39;70.39;96276.69;5764534;22;20064;-79
2023/07/28 14:15:33;;;;;;;2.08;1.88;;;;;;;21.44;67.58;96304.31;5742235;23;20023;-86
2023/07/28 15:27:57;;;;;;;2.58;2.25;;;;;;;20.77;76.98;96291.44;4913643;23;20059;-79
2023/07/28 15:38:31;;;;;;;2.75;2.42;;;;;;;20.76;75.89;96299.63;5052009;23;20060;-78
2023/07/28 15:40:59;;;;;;;3.28;2.90;;;;;;;20.77;76.42;96309.16;4935530;29;20104;-78
2023/07/28 15:43:28;;;;;;;2.60;2.30;;;;;;;20.75;76.46;96305.97;4937298;29;20048;-79
2023/07/28 15:45:55;;;;;;;3.47;3.17;;;;;;;20.77;76.58;96309.16;4936300;29;20056;-79
2023/07/28 15:48:23;;;;;;;3.13;2.67;;;;;;;20.74;76.07;96304.38;4933084;29;20056;-78
2023/07/28 15:50:52;;;;;;;3.72;2.58;;;;;;;20.75;76.49;96305.97;4932409;29;20049;-79
2023/07/28 15:53:19;;;;;;;3.20;2.03;;;;;;;20.73;75.58;96314.19;4932195;29;20045;-79
2023/07/28 15:55:47;;;;;;;2.90;2.60;;;;;;;20.72;76.82;96306.50;4936643;29;20036;-79
2023/07/28 15:58:15;;;;;;;2.67;2.40;;;;;;;20.70;76.78;96306.75;4932715;29;20056;-79
2023/07/28 16:00:44;;;;;;;3.58;2.88;;;;;;;20.69;77.57;96307.00;4928384;29;20052;-78
2023/07/28 16:03:13;;;;;;;3.72;2.45;;;;;;;20.67;77.69;96311.75;4932494;29;20068;-79
2023/07/28 16:05:41;;;;;;;3.92;2.47;;;;;;;20.63;77.55;96313.31;4931511;29;20089;-79
2023/07/28 16:08:09;;;;;;;3.97;3.00;;;;;;;20.57;78.20;96307.97;4931138;29;20052;-79
2023/07/28 16:10:37;;;;;;;2.95;2.60;;;;;;;20.54;78.38;96297.84;4935485;29;20047;-78
2023/07/28 16:13:05;;;;;;;3.25;2.65;;;;;;;20.54;78.95;96292.53;4937064;29;20056;-78
2023/07/28 16:15:32;;;;;;;2.90;2.45;;;;;;;20.55;78.81;96298.63;4936929;29;20052;-79
2023/07/28 16:18:01;;;;;;;2.70;2.50;;;;;;;20.55;79.25;96291.50;4937179;29;20044;-79
2023/07/28 16:20:29;;;;;;;3.97;2.88;;;;;;;20.57;79.39;96300.03;4934577;29;20111;-79
2023/07/28 16:22:57;;;;;;;2.88;2.58;;;;;;;20.60;79.38;96297.91;4936689;29;20154;-79
2023/07/28 16:25:25;;;;;;;3.30;2.58;;;;;;;20.62;79.41;96298.44;4936669;29;20048;-79
2023/07/28 16:27:52;;;;;;;5.50;2.50;;;;;;;20.63;79.05;96290.25;4937433;29;20044;-78
2023/07/28 16:30:20;;;;;;;2.97;2.67;;;;;;;20.65;79.02;96287.38;4941102;29;20044;-78
2023/07/28 16:32:48;;;;;;;3.33;2.47;;;;;;;20.63;78.67;96289.47;4935624;29;20108;-79
2023/07/28 16:35:17;;;;;;;2.42;2.22;;;;;;;20.62;78.87;96301.09;4936171;29;20052;-79
2023/07/28 16:37:44;;;;;;;4.53;2.90;;;;;;;20.62;79.84;96303.75;4936557;29;20469;-79
2023/07/28 16:40:12;;;;;;;4.30;3.20;;;;;;;20.64;79.43;96307.78;4937291;29;20488;-78
2023/07/28 16:42:40;;;;;;;3.63;3.00;;;;;;;20.64;80.23;96299.00;4936564;29;20081;-79
2023/07/28 16:45:08;;;;;;;6.38;3.25;;;;;;;20.62;79.50;96296.63;4935418;29;20059;-79
2023/07/28 16:47:36;;;;;;;2.45;2.25;;;;;;;20.61;79.36;96299.53;4935657;29;20056;-79
2023/07/28 16:50:07;;;;;;;2.90;2.53;;;;;;;20.61;79.50;96302.16;4936963;29;20048;-79
2023/07/28 16:52:36;;;;;;;3.67;2.60;;;;;;;20.61;80.01;96296.88;4936185;29;20052;-78
2023/07/28 16:55:04;;;;;;;3.42;2.50;;;;;;;20.60;79.31;96296.06;4936388;29;20051;-79
2023/07/28 16:57:32;;;;;;;3.38;2.50;;;;;;;20.57;79.60;96297.38;4935881;29;20071;-79
2023/07/28 16:59:59;;;;;;;3.38;3.08;;;;;;;20.58;80.35;96308.78;4936333;29;20059;-79
2023/07/28 17:02:27;;;;;;;3.55;2.85;;;;;;;20.55;79.90;96302.09;4937011;29;20058;-79
2023/07/28 17:04:55;;;;;;;2.95;2.75;;;;;;;20.52;79.80;96302.59;4935985;29;20084;-79
2023/07/28 17:07:23;;;;;;;3.75;3.17;;;;;;;20.51;79.74;96297.53;4936563;29;20051;-79
2023/07/28 17:09:52;;;;;;;3.83;2.88;;;;;;;20.50;80.02;96299.41;4936883;29;20055;-78
2023/07/28 17:12:20;;;;;;;5.05;2.83;;;;;;;20.49;79.93;96302.31;4937191;29;20121;-79
2023/07/28 17:14:47;;;;;;;3.15;2.40;;;;;;;20.47;79.68;96296.47;4935548;29;20063;-79
2023/07/28 17:17:15;;;;;;;3.13;2.70;;;;;;;20.47;79.66;96296.47;4936374;29;20044;-78
2023/07/28 17:19:43;;;;;;;4.20;2.70;;;;;;;20.47;79.70;96296.47;4935600;29;20056;-79
2023/07/28 17:22:10;;;;;;;3.42;2.33;;;;;;;20.46;79.63;96295.66;4936791;29;20056;-79
2023/07/28 17:24:38;;;;;;;4.40;2.75;;;;;;;20.44;79.41;96305.69;4936867;29;20079;-79
2023/07/28 17:27:07;;;;;;;3.67;2.88;;;;;;;20.43;80.53;96304.09;4936518;29;20093;-78
2023/07/28 17:29:35;;;;;;;2.90;2.60;;;;;;;20.41;79.85;96298.25;4936345;29;20056;-79
2023/07/28 17:32:02;;;;;;;4.78;2.97;;;;;;;20.40;80.12;96293.22;4935945;29;20059;-78
2023/07/28 17:34:30;;;;;;;3.25;2.42;;;;;;;20.39;80.26;96295.06;4935852;29;20048;-79
2023/07/28 17:36:58;;;;;;;2.60;2.40;;;;;;;20.38;79.76;96293.47;4935750;29;20052;-79
2023/07/28 17:39:25;;;;;;;3.80;2.42;;;;;;;20.37;79.50;96291.88;4935896;29;20076;-78
2023/07/28 17:41:53;;;;;;;2.83;2.58;;;;;;;20.36;79.47;96290.28;4940783;29;20047;-79
2023/07/28 17:44:22;;;;;;;3.97;3.15;;;;;;;20.36;80.28;96290.28;4942157;29;20043;-79
2023/07/28 17:46:50;;;;;;;3.47;2.65;;;;;;;20.35;79.47;96283.38;4941912;29;20032;-78
2023/07/28 17:49:18;;;;;;;2.70;2.50;;;;;;;20.34;79.44;96287.09;4940903;29;20044;-79
2023/07/28 17:51:45;;;;;;;3.40;3.10;;;;;;;20.34;80.38;96287.09;4941363;29;20035;-78
2023/07/28 17:54:13;;;;;;;4.35;2.97;;;;;;;20.32;79.95;96289.19;4939225;29;20056;-79
2023/07/28 17:56:41;;;;;;;4.22;2.88;;;;;;;20.33;80.69;96294.22;4935039;29;20059;-79
2023/07/28 17:59:08;;;;;;;3.08;2.72;;;;;;;20.32;80.38;96295.28;4934485;29;20048;-79
2023/07/28 18:01:37;;;;;;;3.88;2.50;;;;;;;20.30;80.07;96296.56;4935154;29;20059;-79
2023/07/28 18:04:05;;;;;;;3.67;3.28;;;;;;;20.30;81.07;96301.88;4934167;29;20100;-79
2023/07/28 18:06:33;;;;;;;4.80;2.65;;;;;;;20.31;81.39;96300.81;4934688;29;20091;-79
2023/07/28 18:09:00;;;;;;;3.28;2.97;;;;;;;20.30;81.15;96297.38;4934684;29;20048;-79
2023/07/28 18:11:28;;;;;;;3.33;2.67;;;;;;;20.28;80.46;96291.53;4934449;29;20076;-79
2023/07/28 18:13:56;;;;;;;3.28;2.63;;;;;;;20.26;80.02;96296.25;4935514;29;20620;-79
2023/07/28 18:16:25;;;;;;;3.55;3.20;;;;;;;20.27;80.59;96292.59;4935595;29;20055;-79
2023/07/28 18:18:54;;;;;;;3.40;2.97;;;;;;;20.30;80.76;96300.00;4934804;29;20060;-79
2023/07/28 18:21:22;;;;;;;3.88;3.47;;;;;;;20.32;81.13;96297.13;4934159;29;20048;-79
2023/07/28 18:23:50;;;;;;;4.10;3.47;;;;;;;20.32;80.84;96297.13;4934341;29;20052;-78
2023/07/28 18:26:17;;;;;;;4.43;3.45;;;;;;;20.32;80.75;96299.78;4934573;29;20048;-78
2023/07/28 18:28:45;;;;;;;26.70;3.85;;;;;;;20.30;81.00;96302.66;4938495;29;20056;-78
2023/07/28 18:31:13;;;;;;;4.53;3.47;;;;;;;20.31;80.88;96303.47;4939925;29;20084;-79
2023/07/28 18:33:40;;;;;;;4.40;3.42;;;;;;;20.31;80.80;96308.75;4940790;29;20058;-79
2023/07/28 18:36:09;;;;;;;4.50;3.47;;;;;;;20.31;81.67;96312.22;4940640;29;20065;-79
2023/07/28 18:38:37;;;;;;;5.50;3.30;;;;;;;20.31;81.58;96319.34;4936218;29;20068;-78
2023/07/28 18:41:05;;;;;;;3.50;3.20;;;;;;;20.30;81.47;96307.97;4936126;29;20048;-79
2023/07/28 18:43:33;;;;;;;3.20;2.90;;;;;;;20.30;81.30;96312.47;4933995;29;20062;-79
2023/07/28 18:46:01;;;;;;;5.30;3.38;;;;;;;20.27;81.21;96308.47;4934299;29;20090;-79
2023/07/28 18:48:29;;;;;;;5.68;3.33;;;;;;;20.27;81.22;96315.59;4934141;29;20036;-79
2023/07/28 18:50:57;;;;;;;4.10;3.33;;;;;;;20.25;80.75;96309.78;4933889;29;20048;-79
2023/07/28 18:53:26;;;;;;;4.72;3.60;;;;;;;20.24;81.39;96311.59;4935108;29;20052;-78
2023/07/28 18:55:53;;;;;;;4.05;3.60;;;;;;;20.23;81.40;96306.56;4934507;29;20052;-79
2023/07/28 18:58:21;;;;;;;4.90;3.50;;;;;;;20.21;81.12;96298.09;4934283;29;20093;-78
2023/07/28 19:00:49;;;;;;;3.72;3.40;;;;;;;20.21;81.70;96308.69;4934001;29;20104;-78
2023/07/28 19:03:17;;;;;;;4.15;3.55;;;;;;;20.21;81.69;96303.38;4934645;29;20104;-78
2023/07/28 19:05:45;;;;;;;4.70;3.90;;;;;;;20.19;81.67;96302.81;4934759;29;20079;-79
2023/07/28 19:08:12;;;;;;;3.83;3.47;;;;;;;20.17;81.50;96313.66;4933105;29;20073;-79
2023/07/28 19:10:44;;;;;;;4.57;3.42;;;;;;;20.14;82.32;96316.81;4934787;29;20092;-79
2023/07/28 19:13:11;;;;;;;3.90;3.30;;;;;;;20.13;82.30;96326.59;4934695;29;20112;-79
2023/07/28 19:15:39;;;;;;;4.57;4.03;;;;;;;20.10;82.17;96321.81;4930582;29;20287;-79
2023/07/28 19:18:14;;;;;;;6.97;3.70;;;;;;;20.11;83.14;96333.19;4934999;29;20048;-79
2023/07/28 19:20:42;;;;;;;4.50;3.60;;;;;;;20.09;82.83;96341.38;4933424;29;20052;-78
2023/07/28 19:23:10;;;;;;;4.40;4.00;;;;;;;20.08;83.23;96346.94;4933998;29;20076;-78
2023/07/28 19:25:39;;;;;;;5.32;4.10;;;;;;;20.04;83.62;96346.63;4933867;29;20055;-79
2023/07/28 19:28:08;;;;;;;4.75;3.97;;;;;;;20.02;84.14;96355.88;4934748;29;20055;-79
2023/07/28 19:30:36;;;;;;;4.80;4.07;;;;;;;19.96;84.57;96353.16;4932108;29;20052;-79
2023/07/28 19:33:04;;;;;;;5.30;4.60;;;;;;;19.92;84.58;96364.50;4933370;29;20100;-78
2023/07/28 19:35:31;;;;;;;5.40;4.50;;;;;;;19.87;85.27;96356.47;4933638;29;20052;-78
2023/07/28 19:37:59;;;;;;;6.75;4.47;;;;;;;19.85;85.57;96363.88;4932469;29;20056;-79
2023/07/28 19:40:28;;;;;;;5.93;4.70;;;;;;;19.83;86.28;96371.25;4933081;29;20056;-78
2023/07/28 19:42:56;;;;;;;6.60;5.00;;;;;;;19.81;86.41;96371.50;4930816;29;20052;-79
2023/07/28 19:45:25;;;;;;;7.72;5.47;;;;;;;19.80;87.11;96377.03;4936079;29;20077;-79
2023/07/28 19:47:53;;;;;;;10.85;5.75;;;;;;;19.73;87.47;96356.84;4935326;29;20449;-79
2023/07/28 19:50:21;;;;;;;4.78;4.28;;;;;;;19.67;87.20;96368.38;4935194;29;20111;-79
2023/07/28 19:53:09;;;;;;;4.18;2.30;;;;;;;19.62;86.03;96370.97;4935636;29;20070;-79
2023/07/28 19:55:36;;;;;;;4.53;3.97;;;;;;;19.58;87.18;96369.84;4936030;29;20047;-78
2023/07/28 19:58:06;;;;;;;5.15;4.57;;;;;;;19.57;87.70;96376.22;4935701;29;20059;-78
2023/07/28 20:00:35;;;;;;;4.65;4.25;;;;;;;19.54;87.75;96385.41;4934040;29;20059;-78
2023/07/28 20:03:03;;;;;;;7.93;5.03;;;;;;;19.50;88.01;96386.13;4936211;29;20108;-78
2023/07/28 20:05:31;;;;;;;7.13;5.25;;;;;;;19.47;88.16;96384.00;4936014;29;20079;-79
2023/07/28 20:07:59;;;;;;;6.85;4.80;;;;;;;19.46;88.61;96395.59;4935581;29;20508;-79
2023/07/28 20:10:26;;;;;;;6.15;4.47;;;;;;;19.43;88.71;96385.53;4933838;29;20048;-78
2023/07/28 20:12:54;;;;;;;7.70;5.35;;;;;;;19.42;88.75;96386.56;4935551;29;20128;-79
2023/07/28 20:15:22;;;;;;;6.68;5.25;;;;;;;19.40;89.05;96388.66;4933838;29;20048;-79
2023/07/28 20:17:51;;;;;;;8.68;5.97;;;;;;;19.39;89.31;96392.34;4934207;29;20052;-79
2023/07/28 20:20:19;;;;;;;6.53;5.72;;;;;;;19.38;89.38;96388.09;4933817;29;20044;-79
2023/07/28 20:22:48;;;;;;;9.10;5.38;;;;;;;19.35;89.07;96387.53;4933268;29;20056;-79
2023/07/28 20:25:16;;;;;;;6.63;5.70;;;;;;;19.35;89.31;96398.13;4932623;29;20052;-79
2023/07/28 20:27:44;;;;;;;5.85;5.05;;;;;;;19.34;89.27;96399.16;4933997;29;20052;-79